world map with LIMN marked

LIMN - Airport

This information may not be accurate or current and is not valid for navigation or flight planning. No warranty of fitness for any purpose is made or implied.

flag of Piedmontflag of Italy

Donate via PayPal

Additional information is available on the NEW Great Circle Mapper

Location
City:  Cameri, Piedmont, Italy
Near (Alt.):Novara
Name:Natale e Silvio Palli (Cameri AFB)
ICAO:LIMN

Details
Type:Airport (Aerodrome, Airfield)
Use:Military
Latitude:45°31'47"N (45.529592)
Longitude:8°40'09"E (8.669225)
Datum:WGS 1984
Elevation:586 ft (179 m)
Runways:1
Longest:9818 × 94 ft (2993 × 28.5 m)

Time
Timezone:UTC+1 (DST+4)
Local Time:

Weather
METAR:LIMN  041355Z 14007KT 100V180 CAVOK 11/M01 Q1024 RMK FEW FEW200 VIS MIN 9999 BLU
TAF:LIMN  (expired)

Related Locations
Nearby:
Farthest:CHT: 12159 mi / 19569 km
Waitangi [Tuuta], CIT, NZ

Find:

   beyond  
but within

Other Information
Maps:
Sources:

  


 


Great Circle Mapper   Great Circle Mapper
Great Circle Mapper FAQ   Great Circle Mapper FAQ
  Karl's Home Page
KLSē   KLSē Home
   GC on Facebook
Airlines of the World   Airlines of the World
Donate via PayPal


Copyright © 2004-2019, Karl L. Swartz. All rights reserved.
All trademarks mentioned herein belong to their respective owners.

Please see credits for attribution and copyright information.

Karl Swartz <karl@kls2.com>
  Powered by FreeBSD
Valid HTML 4.01!
Labeled with ICRA
hCard Microformat
Geo Microformat